This is the latest recevied weather packets stored in our database for station/object DC4AT. If no packets are shown the sender has not sent any weather packets the latest 10 day(s).
| Time | Temp. | Humidity | Pressure | Rain* | Wind** | Luminosity | Snow |
|---|---|---|---|---|---|---|---|
| 1777299839 | 15.56° C | 43% | 1022.7 hPa | 0 mm | - | 552 W/m² | - |
| 1777299239 | 15.56° C | 44% | 1023 hPa | 0 mm | - | 490 W/m² | - |
| 1777295639 | 15° C | 46% | 1023.7 hPa | 0 mm | - | 657 W/m² | - |
| 1777294439 | 14.44° C | 47% | 1023.6 hPa | 0 mm | - | 499 W/m² | - |
| 1777292639 | 14.44° C | 46% | 1023.7 hPa | 0 mm | - | 547 W/m² | - |
| 1777291439 | 13.89° C | 49% | 1023.9 hPa | 0 mm | - | 413 W/m² | - |
| 1777289039 | 13.33° C | 50% | 1024.1 hPa | 0 mm | - | 438 W/m² | - |
| 1777288440 | 13.33° C | 48% | 1024.1 hPa | 0 mm | - | 524 W/m² | - |
| 1777287840 | 13.33° C | 50% | 1024.1 hPa | 0 mm | - | 503 W/m² | - |
| 1777287240 | 13.89° C | 48% | 1024.2 hPa | 0 mm | - | 473 W/m² | - |
| 1777286040 | 12.78° C | 53% | 1024.4 hPa | 0 mm | - | 497 W/m² | - |
| 1777285440 | 12.78° C | 50% | 1024.5 hPa | 0 mm | - | 381 W/m² | - |
| 1777284840 | 12.78° C | 49% | 1024.5 hPa | 0 mm | - | 357 W/m² | - |
| 1777281840 | 12.22° C | 55% | 1024.9 hPa | 0 mm | - | 399 W/m² | - |
| 1777281240 | 12.22° C | 56% | 1024.9 hPa | 0 mm | - | 404 W/m² | - |
| 1777280040 | 12.22° C | 59% | 1024.9 hPa | 0 mm | - | 369 W/m² | - |
| 1777279440 | 11.67° C | 63% | 1025 hPa | 0 mm | - | 513 W/m² | - |
| 1777278840 | 11.11° C | 68% | 1025.1 hPa | 0 mm | - | 527 W/m² | - |
| 1777278240 | 10° C | 70% | 1025.2 hPa | 0 mm | - | 494 W/m² | - |
| 1777277640 | 9.44° C | 73% | 1025.3 hPa | 0 mm | - | 496 W/m² | - |
| 1777277040 | 9.44° C | 74% | 1025.3 hPa | 0 mm | - | 469 W/m² | - |
| 1777276440 | 8.89° C | 76% | 1025.2 hPa | 0 mm | - | 443 W/m² | - |
| 1777275240 | 7.78° C | 77% | 1025.2 hPa | 0 mm | - | 338 W/m² | - |
| 1777274640 | 7.22° C | 78% | 1025.3 hPa | 0 mm | - | 299 W/m² | - |
| 1777274040 | 6.67° C | 79% | 1025.3 hPa | 0 mm | - | 315 W/m² | - |
* Rain latest hour (hover to see other rain measurements)
** Current wind speed in m/s (hover to see current wind gust speed)